Time;durP1;ratioP1;P1;durP2;ratioP2;P2;SDS_P1;SDS_P2;PMS_P1;PMS_P2;Temp;Humidity;BMP_temperature;BMP_pressure;BME280_temperature;BME280_humidity;BME280_pressure;Samples;Min_cycle;Max_cycle;Signal;HPM_P1;HPM_P2
2022/07/03 00:00:17;;;;;;;1.50;1.40;;;;;;;;;;6250361;22;20170;-86
2022/07/03 00:02:47;;;;;;;1.03;1.03;;;;;;;;;;6250734;22;20192;-86
2022/07/03 00:05:15;;;;;;;0.40;0.40;;;;;;;;;;6277185;22;20186;-85
2022/07/03 00:07:44;;;;;;;0.30;0.30;;;;;;;;;;6251009;22;20257;-86
2022/07/03 00:10:12;;;;;;;0.70;0.70;;;;;;;;;;6250774;22;20185;-85
2022/07/03 00:12:40;;;;;;;0.33;0.33;;;;;;;;;;6250486;22;20209;-86
2022/07/03 00:15:09;;;;;;;0.67;0.67;;;;;;;;;;6250477;22;20180;-86
2022/07/03 00:17:38;;;;;;;0.30;0.30;;;;;;;;;;6277728;22;20170;-86
2022/07/03 00:20:08;;;;;;;0.40;0.40;;;;;;;;;;6251125;22;20183;-86
2022/07/03 00:22:39;;;;;;;0.70;0.70;;;;;;;;;;6251098;22;20171;-86
2022/07/03 00:25:08;;;;;;;2.07;1.57;;;;;;;;;;6278440;22;20178;-86
2022/07/03 00:27:37;;;;;;;5.47;4.63;;;;;;;;;;6251360;22;20178;-86
2022/07/03 00:30:07;;;;;;;1.37;1.07;;;;;;;;;;6250643;22;20174;-86
2022/07/03 00:32:39;;;;;;;1.43;1.33;;;;;;;;;;6250303;22;20233;-86
2022/07/03 00:35:09;;;;;;;1.30;1.20;;;;;;;;;;6250733;22;20382;-86
2022/07/03 00:37:37;;;;;;;0.50;0.50;;;;;;;;;;6250009;22;20265;-86
2022/07/03 00:40:06;;;;;;;1.60;1.00;;;;;;;;;;6250600;22;20174;-86
2022/07/03 00:42:39;;;;;;;0.73;0.73;;;;;;;;;;6277267;22;20253;-86
2022/07/03 00:45:08;;;;;;;0.40;0.40;;;;;;;;;;6250922;22;20174;-86
2022/07/03 00:47:38;;;;;;;1.33;1.23;;;;;;;;;;6250423;22;20176;-86
2022/07/03 00:50:09;;;;;;;0.40;0.40;;;;;;;;;;6251348;22;20257;-86
2022/07/03 00:52:38;;;;;;;1.40;0.83;;;;;;;;;;6250526;22;20236;-86
2022/07/03 00:55:08;;;;;;;0.80;0.80;;;;;;;;;;6250425;22;20204;-86
2022/07/03 00:57:37;;;;;;;1.30;1.20;;;;;;;;;;6250822;22;20175;-86
2022/07/03 01:00:06;;;;;;;1.40;1.07;;;;;;;;;;6250310;22;20178;-86
2022/07/03 01:02:36;;;;;;;0.33;0.33;;;;;;;;;;6277171;22;20169;-86
2022/07/03 01:05:10;;;;;;;0.50;0.50;;;;;;;;;;6250705;22;20199;-86
2022/07/03 01:07:42;;;;;;;0.30;0.30;;;;;;;;;;6277013;22;20178;-85
2022/07/03 01:10:14;;;;;;;0.80;0.80;;;;;;;;;;6251028;22;20185;-86
2022/07/03 01:12:53;;;;;;;0.30;0.30;;;;;;;;;;6279058;22;20203;-86
2022/07/03 01:15:26;;;;;;;0.93;0.57;;;;;;;;;;6252049;22;20174;-86
2022/07/03 01:18:00;;;;;;;0.50;0.50;;;;;;;;;;6252531;22;20181;-86
2022/07/03 01:20:29;;;;;;;0.60;0.60;;;;;;;;;;6252443;22;20178;-86
2022/07/03 01:23:01;;;;;;;0.20;0.20;;;;;;;;;;6251891;22;20171;-86
2022/07/03 01:25:39;;;;;;;2.43;0.80;;;;;;;;;;6252251;22;20182;-86
2022/07/03 01:28:10;;;;;;;0.40;0.40;;;;;;;;;;6252112;22;20273;-86
2022/07/03 01:30:39;;;;;;;0.30;0.30;;;;;;;;;;6252657;22;20178;-86
2022/07/03 01:33:10;;;;;;;2.07;0.47;;;;;;;;;;6252361;22;20193;-87
2022/07/03 01:35:39;;;;;;;0.50;0.50;;;;;;;;;;6252203;22;20186;-86
2022/07/03 01:38:09;;;;;;;0.67;0.67;;;;;;;;;;6251870;22;20293;-86
2022/07/03 01:40:40;;;;;;;0.60;0.60;;;;;;;;;;6252665;22;20186;-86
2022/07/03 01:43:09;;;;;;;0.37;0.37;;;;;;;;;;6252041;22;20172;-86
2022/07/03 01:45:39;;;;;;;0.50;0.50;;;;;;;;;;6252089;22;20175;-86
2022/07/03 01:48:08;;;;;;;0.30;0.30;;;;;;;;;;6251838;22;20173;-86
2022/07/03 01:50:38;;;;;;;0.30;0.30;;;;;;;;;;6251248;22;20191;-86
2022/07/03 01:53:08;;;;;;;0.40;0.40;;;;;;;;;;6250505;22;20287;-86
2022/07/03 01:55:39;;;;;;;0.47;0.47;;;;;;;;;;6251060;22;20179;-86
2022/07/03 01:58:08;;;;;;;1.10;1.10;;;;;;;;;;6251631;22;20182;-86
2022/07/03 02:00:41;;;;;;;0.30;0.30;;;;;;;;;;6251622;22;20186;-86
2022/07/03 02:03:10;;;;;;;0.30;0.30;;;;;;;;;;6278151;22;20171;-86
2022/07/03 02:05:41;;;;;;;0.37;0.37;;;;;;;;;;6278950;22;20185;-86
2022/07/03 02:08:16;;;;;;;0.40;0.40;;;;;;;;;;6278801;22;20183;-86
2022/07/03 02:10:48;;;;;;;1.57;0.60;;;;;;;;;;6278892;22;20169;-86
2022/07/03 02:13:20;;;;;;;2.63;0.83;;;;;;;;;;6251574;22;20196;-86
2022/07/03 02:15:51;;;;;;;0.67;0.67;;;;;;;;;;6252155;22;20177;-86
2022/07/03 02:18:27;;;;;;;0.80;0.80;;;;;;;;;;6251904;22;20225;-86
2022/07/03 02:21:04;;;;;;;1.27;1.17;;;;;;;;;;6251314;22;20201;-86
2022/07/03 02:23:34;;;;;;;0.20;0.20;;;;;;;;;;6251930;22;20258;-86
2022/07/03 02:26:05;;;;;;;0.30;0.30;;;;;;;;;;6251527;22;20184;-86
2022/07/03 02:28:49;;;;;;;0.20;0.20;;;;;;;;;;6251952;22;20178;-86
2022/07/03 02:31:18;;;;;;;6.93;0.53;;;;;;;;;;6278197;22;20205;-86
2022/07/03 02:33:48;;;;;;;8.00;0.70;;;;;;;;;;6251364;22;20198;-86
2022/07/03 02:36:18;;;;;;;0.77;0.60;;;;;;;;;;6251461;22;20175;-86
2022/07/03 02:38:50;;;;;;;1.33;0.80;;;;;;;;;;6277397;22;20175;-86
2022/07/03 02:41:21;;;;;;;1.70;0.80;;;;;;;;;;6251283;22;20190;-86
2022/07/03 02:43:56;;;;;;;0.40;0.40;;;;;;;;;;6251587;22;20184;-86
2022/07/03 02:49:18;;;;;;;1.00;0.47;;;;;;;;;;6251748;22;20223;-86
2022/07/03 02:51:49;;;;;;;0.40;0.40;;;;;;;;;;6251971;22;20261;-86
2022/07/03 02:54:19;;;;;;;0.33;0.33;;;;;;;;;;6251720;22;20200;-86
2022/07/03 02:56:52;;;;;;;0.80;0.80;;;;;;;;;;6251520;22;20179;-86
2022/07/03 02:59:29;;;;;;;0.40;0.40;;;;;;;;;;6251190;22;20257;-86
2022/07/03 03:02:05;;;;;;;0.30;0.30;;;;;;;;;;6251701;22;20184;-86
2022/07/03 03:04:34;;;;;;;0.50;0.50;;;;;;;;;;6251381;22;20194;-86
2022/07/03 03:07:04;;;;;;;0.50;0.50;;;;;;;;;;6251524;22;20183;-86
2022/07/03 03:09:36;;;;;;;1.50;0.67;;;;;;;;;;6251172;22;20178;-86
2022/07/03 03:12:06;;;;;;;0.60;0.60;;;;;;;;;;6251249;22;20261;-86
2022/07/03 03:14:39;;;;;;;0.30;0.30;;;;;;;;;;6251564;22;20199;-86
2022/07/03 03:17:09;;;;;;;0.50;0.50;;;;;;;;;;6252077;22;20178;-86
2022/07/03 03:19:38;;;;;;;0.30;0.30;;;;;;;;;;6251494;22;20176;-86
2022/07/03 03:22:09;;;;;;;1.00;0.40;;;;;;;;;;6250996;22;20174;-87
2022/07/03 03:24:37;;;;;;;0.80;0.80;;;;;;;;;;6251263;22;20173;-86
2022/07/03 03:27:07;;;;;;;0.47;0.47;;;;;;;;;;6250916;22;20231;-86
2022/07/03 03:29:36;;;;;;;0.40;0.40;;;;;;;;;;6277670;22;20169;-86
2022/07/03 03:32:05;;;;;;;2.70;1.13;;;;;;;;;;6136708;22;20272;-87
2022/07/03 03:34:34;;;;;;;1.17;1.17;;;;;;;;;;6068373;23;20200;-86
2022/07/03 03:37:03;;;;;;;1.60;0.50;;;;;;;;;;6093583;23;20169;-86
2022/07/03 03:39:31;;;;;;;0.30;0.30;;;;;;;;;;6069309;23;20256;-86
2022/07/03 03:42:01;;;;;;;0.30;0.30;;;;;;;;;;6069179;23;20182;-86
2022/07/03 03:44:29;;;;;;;0.90;0.90;;;;;;;;;;6094234;23;20181;-86
2022/07/03 03:46:59;;;;;;;6.00;1.07;;;;;;;;;;6068488;23;20184;-86
2022/07/03 03:49:28;;;;;;;0.50;0.50;;;;;;;;;;6068611;23;20181;-86
2022/07/03 03:51:56;;;;;;;0.53;0.53;;;;;;;;;;6068884;23;20185;-85
2022/07/03 03:54:25;;;;;;;1.03;0.70;;;;;;;;;;6094006;23;20189;-86
2022/07/03 03:56:53;;;;;;;0.40;0.40;;;;;;;;;;6068984;23;20207;-86
2022/07/03 03:59:22;;;;;;;0.57;0.57;;;;;;;;;;6093783;23;20177;-86
2022/07/03 04:01:51;;;;;;;0.53;0.53;;;;;;;;;;6068904;23;20182;-87
2022/07/03 04:04:22;;;;;;;0.30;0.30;;;;;;;;;;6068494;23;20177;-86
2022/07/03 04:06:50;;;;;;;1.50;0.97;;;;;;;;;;6068738;23;20188;-85
2022/07/03 04:09:19;;;;;;;0.40;0.40;;;;;;;;;;6068461;23;20177;-86
2022/07/03 04:11:47;;;;;;;0.30;0.30;;;;;;;;;;6068724;23;20256;-85
2022/07/03 04:14:16;;;;;;;0.30;0.30;;;;;;;;;;6068720;23;20279;-86
2022/07/03 04:16:45;;;;;;;0.63;0.63;;;;;;;;;;6067924;23;20195;-85
2022/07/03 04:19:13;;;;;;;0.40;0.40;;;;;;;;;;6068640;23;20264;-85
2022/07/03 04:21:43;;;;;;;2.67;0.70;;;;;;;;;;6067566;23;20184;-86
2022/07/03 04:24:11;;;;;;;0.33;0.33;;;;;;;;;;6068798;23;20206;-86
2022/07/03 04:26:40;;;;;;;0.50;0.50;;;;;;;;;;6067911;23;20178;-86
2022/07/03 04:29:08;;;;;;;1.37;0.50;;;;;;;;;;6068035;23;20178;-85
2022/07/03 04:31:37;;;;;;;0.40;0.40;;;;;;;;;;6069472;23;20258;-86
2022/07/03 04:34:05;;;;;;;1.20;0.60;;;;;;;;;;6040671;23;20210;-86
2022/07/03 04:36:33;;;;;;;1.57;1.47;;;;;;;;;;6065661;23;20170;-86
2022/07/03 04:39:03;;;;;;;0.20;0.20;;;;;;;;;;6040065;23;20265;-85
2022/07/03 04:41:32;;;;;;;0.87;0.87;;;;;;;;;;6040010;23;20178;-85
2022/07/03 04:44:00;;;;;;;0.70;0.70;;;;;;;;;;6039573;23;20180;-85
2022/07/03 04:46:29;;;;;;;0.30;0.30;;;;;;;;;;6040753;23;20202;-86
2022/07/03 04:48:57;;;;;;;0.57;0.57;;;;;;;;;;6066035;23;20190;-86
2022/07/03 04:51:26;;;;;;;3.50;1.07;;;;;;;;;;6040663;23;20180;-86
2022/07/03 04:53:55;;;;;;;0.50;0.50;;;;;;;;;;6041057;23;20195;-86
2022/07/03 04:56:25;;;;;;;0.30;0.30;;;;;;;;;;6041109;23;20259;-86
2022/07/03 04:58:53;;;;;;;1.20;1.20;;;;;;;;;;6041258;23;20177;-85
2022/07/03 05:01:22;;;;;;;3.40;1.80;;;;;;;;;;6040984;23;20239;-86
2022/07/03 05:03:50;;;;;;;3.23;1.27;;;;;;;;;;6040569;23;20208;-86
2022/07/03 05:06:20;;;;;;;0.30;0.30;;;;;;;;;;6041185;23;20177;-87
2022/07/03 05:08:48;;;;;;;6.70;2.80;;;;;;;;;;6040519;23;20191;-87
2022/07/03 05:11:17;;;;;;;3.60;2.13;;;;;;;;;;6040899;23;20194;-87
2022/07/03 05:13:47;;;;;;;5.03;1.67;;;;;;;;;;6040919;23;20178;-86
2022/07/03 05:16:15;;;;;;;1.60;1.37;;;;;;;;;;6040392;23;20246;-87
2022/07/03 05:18:44;;;;;;;1.40;1.40;;;;;;;;;;6040939;23;20347;-87
2022/07/03 05:21:12;;;;;;;6.43;0.50;;;;;;;;;;6040817;23;20189;-87
2022/07/03 05:23:41;;;;;;;0.73;0.73;;;;;;;;;;6065982;23;20182;-87
2022/07/03 05:26:09;;;;;;;2.97;1.27;;;;;;;;;;6040651;23;20174;-87
2022/07/03 05:28:38;;;;;;;2.03;1.53;;;;;;;;;;6041196;23;20230;-87
2022/07/03 05:31:07;;;;;;;3.57;1.43;;;;;;;;;;6041647;23;20178;-87
2022/07/03 05:36:26;;;;;;;0.80;0.80;;;;;;;;;;6164492;22;20306;-85
2022/07/03 05:41:41;;;;;;;3.87;1.60;;;;;;;;;;6218420;23;20169;-85
2022/07/03 05:44:09;;;;;;;1.03;0.70;;;;;;;;;;6192127;23;20242;-86
2022/07/03 05:46:39;;;;;;;4.03;1.37;;;;;;;;;;6217997;23;20178;-86
2022/07/03 05:49:07;;;;;;;1.07;0.80;;;;;;;;;;6191680;23;20179;-85
2022/07/03 05:51:36;;;;;;;2.83;1.20;;;;;;;;;;6191869;23;20180;-85
2022/07/03 05:54:04;;;;;;;1.10;1.10;;;;;;;;;;6191297;23;20212;-86
2022/07/03 05:56:33;;;;;;;9.53;1.17;;;;;;;;;;6190959;23;20202;-86
2022/07/03 05:59:02;;;;;;;4.73;3.93;;;;;;;;;;6217652;23;20272;-86
2022/07/03 06:01:30;;;;;;;1.77;0.97;;;;;;;;;;6191304;23;20193;-86
2022/07/03 06:04:00;;;;;;;2.77;0.87;;;;;;;;;;6191230;23;20267;-85
2022/07/03 06:06:29;;;;;;;0.57;0.57;;;;;;;;;;6191478;23;20177;-86
2022/07/03 06:08:57;;;;;;;0.83;0.83;;;;;;;;;;6191276;23;20189;-85
2022/07/03 06:11:26;;;;;;;3.80;1.23;;;;;;;;;;6190741;23;20174;-87
2022/07/03 06:13:54;;;;;;;1.20;0.90;;;;;;;;;;6217153;23;20253;-86
2022/07/03 06:19:15;;;;;;;0.53;0.50;;;;;;;;;;6206033;22;20216;-86
2022/07/03 06:21:46;;;;;;;7.27;2.17;;;;;;;;;;6190982;23;20263;-86
2022/07/03 06:24:14;;;;;;;1.90;1.50;;;;;;;;;;6190920;23;20264;-86
2022/07/03 06:26:42;;;;;;;1.23;1.13;;;;;;;;;;6190532;23;20177;-86
2022/07/03 06:29:11;;;;;;;1.40;1.30;;;;;;;;;;6190519;23;20174;-86
2022/07/03 06:31:39;;;;;;;0.60;0.60;;;;;;;;;;6191045;23;20181;-86
2022/07/03 06:34:08;;;;;;;2.90;1.10;;;;;;;;;;6190913;23;20175;-87
2022/07/03 06:36:38;;;;;;;3.67;2.30;;;;;;;;;;6217030;23;20277;-87
2022/07/03 06:39:06;;;;;;;1.90;1.27;;;;;;;;;;6190243;23;20196;-87
2022/07/03 06:41:35;;;;;;;3.10;1.73;;;;;;;;;;6217109;23;20183;-86
2022/07/03 06:44:03;;;;;;;3.97;1.23;;;;;;;;;;6191015;23;20185;-87
2022/07/03 06:46:31;;;;;;;2.60;1.07;;;;;;;;;;6190395;23;20204;-86
2022/07/03 06:49:00;;;;;;;8.13;1.80;;;;;;;;;;6190495;23;20176;-87
2022/07/03 06:51:29;;;;;;;0.70;0.70;;;;;;;;;;6190940;23;20255;-86
2022/07/03 06:53:59;;;;;;;1.47;0.90;;;;;;;;;;6189960;23;20185;-87
2022/07/03 06:56:27;;;;;;;1.07;1.03;;;;;;;;;;6217236;23;20198;-87
2022/07/03 06:58:58;;;;;;;1.63;0.90;;;;;;;;;;6191227;23;20180;-87
2022/07/03 07:01:26;;;;;;;0.60;0.50;;;;;;;;;;6190423;23;20186;-87
2022/07/03 07:03:55;;;;;;;0.50;0.50;;;;;;;;;;6190738;23;20174;-87
2022/07/03 07:06:24;;;;;;;2.10;0.77;;;;;;;;;;6191166;23;20173;-87
2022/07/03 07:08:52;;;;;;;0.30;0.30;;;;;;;;;;6190730;23;20258;-86
2022/07/03 07:11:22;;;;;;;0.53;0.53;;;;;;;;;;6190699;23;20178;-87
2022/07/03 07:13:50;;;;;;;0.80;0.80;;;;;;;;;;6217264;23;20178;-87
2022/07/03 07:16:19;;;;;;;3.83;1.03;;;;;;;;;;6216828;23;20201;-87
2022/07/03 07:18:47;;;;;;;1.60;0.90;;;;;;;;;;6190386;23;20265;-86
2022/07/03 07:21:16;;;;;;;0.40;0.40;;;;;;;;;;6190715;23;20181;-87
2022/07/03 07:23:44;;;;;;;6.33;1.00;;;;;;;;;;6190652;23;20192;-86
2022/07/03 07:26:13;;;;;;;7.87;1.43;;;;;;;;;;6190503;23;20225;-86
2022/07/03 07:28:43;;;;;;;11.07;6.33;;;;;;;;;;6216682;23;20173;-86
2022/07/03 07:31:11;;;;;;;0.63;0.53;;;;;;;;;;6190311;23;20174;-87
2022/07/03 07:33:40;;;;;;;0.50;0.50;;;;;;;;;;6215212;23;20176;-86
2022/07/03 07:36:08;;;;;;;3.37;2.70;;;;;;;;;;6190240;23;20196;-87
2022/07/03 07:38:37;;;;;;;0.93;0.70;;;;;;;;;;6190558;23;20183;-86
2022/07/03 07:41:05;;;;;;;0.53;0.53;;;;;;;;;;6190332;23;20260;-86
2022/07/03 07:43:34;;;;;;;1.70;1.60;;;;;;;;;;6190688;23;20185;-87
2022/07/03 07:46:04;;;;;;;1.67;1.50;;;;;;;;;;6190255;23;20255;-87
2022/07/03 07:48:32;;;;;;;0.40;0.40;;;;;;;;;;6189865;23;20238;-87
2022/07/03 07:51:01;;;;;;;0.90;0.90;;;;;;;;;;6190276;23;20181;-86
2022/07/03 07:53:29;;;;;;;2.33;1.10;;;;;;;;;;6216443;23;20176;-86
2022/07/03 07:55:58;;;;;;;3.40;1.60;;;;;;;;;;6189540;23;20203;-87
2022/07/03 07:58:26;;;;;;;2.10;1.03;;;;;;;;;;6190259;23;20208;-86
2022/07/03 08:06:28;;;;;;;2.70;1.27;;;;;;;;;;6190458;23;20264;-85
2022/07/03 08:08:59;;;;;;;2.73;1.60;;;;;;;;;;6189984;23;20203;-86
2022/07/03 08:11:27;;;;;;;2.20;1.37;;;;;;;;;;6216588;23;20181;-86
2022/07/03 08:13:56;;;;;;;1.57;1.10;;;;;;;;;;6190154;23;20195;-84
2022/07/03 08:16:25;;;;;;;0.77;0.77;;;;;;;;;;6190039;23;20195;-86
2022/07/03 08:18:55;;;;;;;1.20;0.90;;;;;;;;;;6162740;23;20219;-87
2022/07/03 08:21:23;;;;;;;0.63;0.63;;;;;;;;;;6065648;23;20171;-86
2022/07/03 08:23:52;;;;;;;1.67;1.10;;;;;;;;;;6064598;23;20207;-86
2022/07/03 08:26:20;;;;;;;2.43;1.77;;;;;;;;;;6064176;23;20178;-86
2022/07/03 08:28:55;;;;;;;0.90;0.90;;;;;;;;;;6064504;23;20201;-86
2022/07/03 08:31:23;;;;;;;1.90;0.70;;;;;;;;;;6064571;23;20187;-86
2022/07/03 08:33:52;;;;;;;2.03;1.37;;;;;;;;;;6064634;23;20243;-86
2022/07/03 08:36:22;;;;;;;0.50;0.50;;;;;;;;;;6064278;23;20235;-86
2022/07/03 08:38:50;;;;;;;0.50;0.50;;;;;;;;;;6064599;23;20207;-86
2022/07/03 08:41:20;;;;;;;1.20;0.53;;;;;;;;;;6064719;23;20207;-86
2022/07/03 08:43:49;;;;;;;2.63;1.33;;;;;;;;;;6064265;23;20218;-86
2022/07/03 08:46:17;;;;;;;1.50;1.40;;;;;;;;;;6065020;23;20230;-86
2022/07/03 08:48:47;;;;;;;0.73;0.70;;;;;;;;;;6064892;23;20184;-86
2022/07/03 08:51:16;;;;;;;1.30;1.10;;;;;;;;;;6064992;23;20237;-86
2022/07/03 08:53:48;;;;;;;2.30;1.40;;;;;;;;;;6064956;23;20183;-86
2022/07/03 08:56:17;;;;;;;2.93;0.87;;;;;;;;;;6064436;23;20214;-86
2022/07/03 08:58:45;;;;;;;7.53;1.00;;;;;;;;;;6065946;23;20199;-86
2022/07/03 09:01:16;;;;;;;1.33;1.00;;;;;;;;;;6064368;23;20275;-86
2022/07/03 09:03:44;;;;;;;2.23;2.03;;;;;;;;;;6064405;23;20221;-86
2022/07/03 09:06:13;;;;;;;5.10;1.50;;;;;;;;;;6065644;23;20174;-86
2022/07/03 09:08:42;;;;;;;0.60;0.60;;;;;;;;;;6065670;23;20250;-85
2022/07/03 09:11:12;;;;;;;0.60;0.60;;;;;;;;;;6064158;23;20263;-85
2022/07/03 09:13:41;;;;;;;1.70;1.10;;;;;;;;;;6064627;23;20258;-86
2022/07/03 09:16:16;;;;;;;6.40;1.03;;;;;;;;;;6064714;23;20182;-86
2022/07/03 09:18:45;;;;;;;0.40;0.40;;;;;;;;;;6082571;23;20204;-85
2022/07/03 09:21:14;;;;;;;1.10;0.83;;;;;;;;;;6192069;23;20175;-86
2022/07/03 09:23:43;;;;;;;0.87;0.53;;;;;;;;;;6217956;23;20174;-86
2022/07/03 09:26:15;;;;;;;1.77;1.03;;;;;;;;;;6191883;23;20275;-86
2022/07/03 09:28:50;;;;;;;0.90;0.90;;;;;;;;;;6191592;23;20234;-86
2022/07/03 09:31:20;;;;;;;0.33;0.33;;;;;;;;;;6191408;23;20271;-86
2022/07/03 09:33:52;;;;;;;0.93;0.90;;;;;;;;;;6191429;23;20177;-86
2022/07/03 09:36:22;;;;;;;3.43;1.47;;;;;;;;;;6191367;23;20264;-86
2022/07/03 09:38:51;;;;;;;0.77;0.77;;;;;;;;;;6191320;23;20192;-86
2022/07/03 09:41:21;;;;;;;2.63;0.63;;;;;;;;;;6190994;23;20261;-85
2022/07/03 09:43:49;;;;;;;1.13;1.10;;;;;;;;;;6191091;23;20185;-87
2022/07/03 09:46:18;;;;;;;1.00;1.00;;;;;;;;;;6217765;23;20205;-86
2022/07/03 09:48:47;;;;;;;0.57;0.57;;;;;;;;;;6191334;23;20182;-87
2022/07/03 09:51:20;;;;;;;0.53;0.53;;;;;;;;;;6191548;23;20210;-86
2022/07/03 09:53:53;;;;;;;0.53;0.53;;;;;;;;;;6192001;23;20280;-86
2022/07/03 09:56:27;;;;;;;1.93;0.83;;;;;;;;;;6217457;23;20169;-87
2022/07/03 09:59:17;;;;;;;0.80;0.63;;;;;;;;;;6191333;23;20194;-86
2022/07/03 10:01:46;;;;;;;0.70;0.70;;;;;;;;;;6185459;23;20177;-85
2022/07/03 10:04:19;;;;;;;2.40;1.13;;;;;;;;;;6191088;23;20234;-86
2022/07/03 10:06:52;;;;;;;1.70;1.43;;;;;;;;;;6191118;23;20181;-87
2022/07/03 10:09:21;;;;;;;0.50;0.37;;;;;;;;;;6190697;23;20205;-87
2022/07/03 10:11:51;;;;;;;0.80;0.80;;;;;;;;;;6190972;23;20209;-86
2022/07/03 10:14:21;;;;;;;1.13;0.87;;;;;;;;;;6190825;23;20177;-86
2022/07/03 10:16:50;;;;;;;1.47;1.07;;;;;;;;;;6191570;23;20181;-86
2022/07/03 10:19:19;;;;;;;0.63;0.60;;;;;;;;;;6143027;23;20207;-87
2022/07/03 10:21:51;;;;;;;1.03;0.57;;;;;;;;;;6064450;23;20178;-86
2022/07/03 10:24:20;;;;;;;0.80;0.80;;;;;;;;;;6064615;23;20176;-86
2022/07/03 10:26:48;;;;;;;1.00;0.90;;;;;;;;;;6064351;23;20192;-86
2022/07/03 10:29:19;;;;;;;1.73;1.10;;;;;;;;;;6064633;23;20177;-86
2022/07/03 10:31:51;;;;;;;0.80;0.80;;;;;;;;;;6064539;23;20192;-86
2022/07/03 10:34:20;;;;;;;2.33;1.10;;;;;;;;;;6064224;23;20189;-86
2022/07/03 10:36:50;;;;;;;0.80;0.70;;;;;;;;;;6064776;23;20209;-86
2022/07/03 10:39:26;;;;;;;0.90;0.90;;;;;;;;;;6064128;23;20196;-86
2022/07/03 10:44:54;;;;;;;0.80;0.80;;;;;;;;;;6035845;23;20219;-86
2022/07/03 10:47:39;;;;;;;0.40;0.40;;;;;;;;;;6064284;23;20192;-87
2022/07/03 10:50:10;;;;;;;0.70;0.70;;;;;;;;;;6063494;23;20183;-86
2022/07/03 10:52:39;;;;;;;1.27;1.17;;;;;;;;;;6064229;23;20184;-86
2022/07/03 10:55:08;;;;;;;0.47;0.47;;;;;;;;;;6063606;23;20185;-86
2022/07/03 10:57:37;;;;;;;0.60;0.60;;;;;;;;;;6064278;23;20288;-86
2022/07/03 11:00:08;;;;;;;1.40;0.50;;;;;;;;;;6064363;23;20268;-86
2022/07/03 11:02:39;;;;;;;0.50;0.50;;;;;;;;;;6063936;23;20188;-86
2022/07/03 11:05:25;;;;;;;0.70;0.63;;;;;;;;;;6065252;23;20175;-86
2022/07/03 11:08:07;;;;;;;1.03;0.80;;;;;;;;;;6064336;23;20179;-86
2022/07/03 11:10:41;;;;;;;1.50;0.80;;;;;;;;;;6063390;23;20184;-86
2022/07/03 11:13:20;;;;;;;0.50;0.50;;;;;;;;;;6040374;23;20178;-86
2022/07/03 11:15:51;;;;;;;1.03;0.60;;;;;;;;;;6063894;23;20190;-86
2022/07/03 11:18:21;;;;;;;0.90;0.60;;;;;;;;;;6064108;23;20197;-85
2022/07/03 11:21:08;;;;;;;0.27;0.27;;;;;;;;;;6063099;23;20216;-86
2022/07/03 11:23:40;;;;;;;0.40;0.40;;;;;;;;;;6064311;23;20185;-86
2022/07/03 11:26:22;;;;;;;0.53;0.53;;;;;;;;;;6065131;23;20251;-86
2022/07/03 11:28:51;;;;;;;3.07;1.00;;;;;;;;;;6064186;23;20184;-87
2022/07/03 11:31:23;;;;;;;1.00;1.00;;;;;;;;;;6063336;23;20185;-86
2022/07/03 11:33:58;;;;;;;3.10;0.87;;;;;;;;;;6064101;23;20189;-86
2022/07/03 11:36:27;;;;;;;1.73;1.17;;;;;;;;;;6064067;23;20188;-86
2022/07/03 11:39:05;;;;;;;2.13;0.90;;;;;;;;;;6063814;23;20204;-86
2022/07/03 11:41:43;;;;;;;0.60;0.60;;;;;;;;;;6064966;23;20171;-86
2022/07/03 11:44:16;;;;;;;0.63;0.63;;;;;;;;;;6064395;23;20192;-86
2022/07/03 11:46:48;;;;;;;4.87;1.47;;;;;;;;;;6063510;23;20184;-86
2022/07/03 11:49:17;;;;;;;2.10;1.10;;;;;;;;;;6063847;23;20234;-86
2022/07/03 11:51:56;;;;;;;0.83;0.70;;;;;;;;;;6064033;23;20205;-86
2022/07/03 11:54:24;;;;;;;1.17;0.80;;;;;;;;;;6063366;23;20262;-86
2022/07/03 11:56:53;;;;;;;1.60;1.13;;;;;;;;;;6063998;23;20191;-86
2022/07/03 11:59:22;;;;;;;1.10;0.80;;;;;;;;;;6063929;23;20196;-86
2022/07/03 12:01:53;;;;;;;5.47;1.40;;;;;;;;;;6063898;23;20182;-86
2022/07/03 12:04:22;;;;;;;0.60;0.60;;;;;;;;;;6063881;23;20236;-86
2022/07/03 12:06:52;;;;;;;1.77;1.27;;;;;;;;;;6063911;23;20184;-86
2022/07/03 12:09:22;;;;;;;1.00;0.90;;;;;;;;;;6064068;23;20201;-86
2022/07/03 12:12:01;;;;;;;2.67;1.40;;;;;;;;;;6063323;23;20205;-86
2022/07/03 12:14:40;;;;;;;2.80;0.83;;;;;;;;;;6065380;23;20174;-86
2022/07/03 12:17:11;;;;;;;0.57;0.57;;;;;;;;;;6063721;23;20254;-86
2022/07/03 12:19:45;;;;;;;0.60;0.60;;;;;;;;;;6063126;23;20213;-86
2022/07/03 12:22:14;;;;;;;1.03;0.70;;;;;;;;;;6063687;23;20203;-86
2022/07/03 12:24:43;;;;;;;1.53;0.53;;;;;;;;;;6063935;23;20278;-86
2022/07/03 12:27:12;;;;;;;0.60;0.60;;;;;;;;;;6063709;23;20249;-87
2022/07/03 12:29:43;;;;;;;0.37;0.37;;;;;;;;;;6062885;23;20179;-86
2022/07/03 12:32:14;;;;;;;0.50;0.50;;;;;;;;;;6064002;23;20244;-86
2022/07/03 12:34:42;;;;;;;1.40;1.20;;;;;;;;;;6062667;23;20195;-86
2022/07/03 12:37:11;;;;;;;0.83;0.83;;;;;;;;;;6063385;23;20240;-86
2022/07/03 12:39:43;;;;;;;0.77;0.77;;;;;;;;;;6062740;23;20198;-87
2022/07/03 12:42:16;;;;;;;0.50;0.50;;;;;;;;;;6064526;23;20180;-87
2022/07/03 12:44:44;;;;;;;2.47;0.50;;;;;;;;;;6063084;23;20183;-86
2022/07/03 12:47:17;;;;;;;1.90;0.97;;;;;;;;;;6062988;23;20296;-86
2022/07/03 12:49:46;;;;;;;1.10;0.93;;;;;;;;;;6063592;23;20173;-86
2022/07/03 12:52:14;;;;;;;0.50;0.50;;;;;;;;;;6063475;23;20185;-86
2022/07/03 12:54:43;;;;;;;1.47;0.90;;;;;;;;;;6062899;23;20188;-86
2022/07/03 13:00:06;;;;;;;0.63;0.60;;;;;;;;;;6063323;23;20201;-86
2022/07/03 13:02:36;;;;;;;0.50;0.50;;;;;;;;;;6063146;23;20235;-86
2022/07/03 13:05:16;;;;;;;9.13;1.40;;;;;;;;;;6063418;23;20192;-87
2022/07/03 13:07:45;;;;;;;1.90;0.57;;;;;;;;;;6064081;23;20180;-86
2022/07/03 13:10:16;;;;;;;1.03;0.70;;;;;;;;;;6064139;23;20186;-86
2022/07/03 13:12:48;;;;;;;1.00;0.60;;;;;;;;;;6064246;23;20208;-86
2022/07/03 13:15:19;;;;;;;0.73;0.60;;;;;;;;;;6064145;23;20184;-86
2022/07/03 13:18:02;;;;;;;0.67;0.67;;;;;;;;;;6064807;23;20203;-86
2022/07/03 13:20:31;;;;;;;4.77;0.60;;;;;;;;;;6064477;23;20297;-87
2022/07/03 13:23:01;;;;;;;1.07;0.93;;;;;;;;;;6064424;23;20177;-86
2022/07/03 13:25:30;;;;;;;1.17;0.60;;;;;;;;;;6064548;23;20180;-86
2022/07/03 13:28:05;;;;;;;1.63;0.63;;;;;;;;;;6064617;23;20185;-86
2022/07/03 13:30:34;;;;;;;1.47;1.00;;;;;;;;;;6064320;23;20183;-86
2022/07/03 13:33:04;;;;;;;3.40;1.13;;;;;;;;;;6065306;23;20217;-86
2022/07/03 13:35:32;;;;;;;0.80;0.80;;;;;;;;;;6064332;23;20183;-86
2022/07/03 13:38:01;;;;;;;2.27;1.33;;;;;;;;;;6066136;23;20181;-86
2022/07/03 13:40:30;;;;;;;1.60;1.30;;;;;;;;;;6064334;23;20199;-85
2022/07/03 13:42:58;;;;;;;3.17;1.40;;;;;;;;;;6065590;23;20199;-86
2022/07/03 13:45:27;;;;;;;0.70;0.70;;;;;;;;;;6064029;23;20267;-86
2022/07/03 13:47:55;;;;;;;2.17;2.00;;;;;;;;;;6064617;23;20224;-86
2022/07/03 13:50:27;;;;;;;0.50;0.50;;;;;;;;;;6065403;23;20166;-87
2022/07/03 13:52:56;;;;;;;1.63;1.53;;;;;;;;;;6065621;23;20177;-87
2022/07/03 13:55:24;;;;;;;2.33;1.40;;;;;;;;;;6064365;23;20219;-87
2022/07/03 13:57:53;;;;;;;2.23;1.40;;;;;;;;;;6064190;23;20194;-87
2022/07/03 14:00:22;;;;;;;2.27;1.40;;;;;;;;;;6064549;23;20197;-86
2022/07/03 14:02:50;;;;;;;1.20;1.10;;;;;;;;;;6064272;23;20296;-87
2022/07/03 14:05:19;;;;;;;1.30;1.20;;;;;;;;;;6064120;23;20183;-86
2022/07/03 14:07:49;;;;;;;1.90;1.03;;;;;;;;;;6064045;23;20210;-87
2022/07/03 14:10:18;;;;;;;1.23;1.03;;;;;;;;;;6064333;23;20188;-87
2022/07/03 14:12:46;;;;;;;0.67;0.67;;;;;;;;;;6063745;23;20208;-86
2022/07/03 14:15:15;;;;;;;2.30;1.20;;;;;;;;;;6064740;23;20230;-86
2022/07/03 14:17:43;;;;;;;0.90;0.90;;;;;;;;;;6063610;23;20182;-86
2022/07/03 14:20:13;;;;;;;4.63;0.80;;;;;;;;;;6063932;23;20214;-86
2022/07/03 14:22:41;;;;;;;1.20;1.10;;;;;;;;;;6064259;23;20179;-86
2022/07/03 14:25:17;;;;;;;0.87;0.83;;;;;;;;;;6064049;23;20268;-86
2022/07/03 14:33:17;;;;;;;1.80;1.63;;;;;;;;;;6064040;23;20184;-86
2022/07/03 14:35:46;;;;;;;1.67;1.53;;;;;;;;;;6064579;23;20211;-86
2022/07/03 14:38:15;;;;;;;1.83;1.53;;;;;;;;;;6064135;23;20181;-86
2022/07/03 14:40:44;;;;;;;2.13;1.87;;;;;;;;;;6064194;23;20198;-86
2022/07/03 14:43:13;;;;;;;4.83;2.33;;;;;;;;;;6064040;23;20181;-86
2022/07/03 14:45:41;;;;;;;5.20;1.73;;;;;;;;;;6065640;23;20171;-85
2022/07/03 14:48:10;;;;;;;3.50;1.47;;;;;;;;;;6063701;23;20189;-86
2022/07/03 14:50:38;;;;;;;2.70;1.73;;;;;;;;;;6063977;23;20177;-86
2022/07/03 14:53:08;;;;;;;1.50;1.33;;;;;;;;;;6064230;23;20182;-85
2022/07/03 14:55:38;;;;;;;4.20;2.07;;;;;;;;;;6063967;23;20317;-86
2022/07/03 14:58:14;;;;;;;1.63;1.50;;;;;;;;;;6063934;23;20269;-86
2022/07/03 15:00:43;;;;;;;1.20;1.03;;;;;;;;;;6063667;23;20206;-86
2022/07/03 15:03:16;;;;;;;1.33;1.27;;;;;;;;;;6063511;23;20184;-86
2022/07/03 15:05:47;;;;;;;1.20;1.10;;;;;;;;;;6063947;23;20187;-86
2022/07/03 15:08:27;;;;;;;2.07;1.40;;;;;;;;;;6063752;23;20180;-86
2022/07/03 15:10:56;;;;;;;0.90;0.90;;;;;;;;;;6065309;23;20196;-86
2022/07/03 15:13:27;;;;;;;1.60;1.43;;;;;;;;;;6064078;23;20181;-86
2022/07/03 15:15:56;;;;;;;1.23;1.20;;;;;;;;;;6064121;23;20184;-86
2022/07/03 15:18:25;;;;;;;1.70;1.60;;;;;;;;;;6063358;23;20211;-86
2022/07/03 15:20:54;;;;;;;3.97;2.23;;;;;;;;;;6064198;23;20232;-86
2022/07/03 15:23:22;;;;;;;2.63;2.00;;;;;;;;;;6064053;23;20177;-87
2022/07/03 15:25:51;;;;;;;2.10;1.90;;;;;;;;;;6063982;23;20188;-86
2022/07/03 15:28:21;;;;;;;2.53;2.23;;;;;;;;;;6064252;23;20180;-86